createdAt,value
2017-07-09T00:00:23.208Z,18.15
2017-07-09T00:01:23.787Z,18.19
2017-07-09T00:02:24.367Z,18.74
2017-07-09T00:03:24.945Z,18.77
2017-07-09T00:04:25.526Z,18.95
2017-07-09T00:05:26.103Z,18.50
2017-07-09T00:06:26.681Z,18.10
2017-07-09T00:07:27.261Z,17.83
2017-07-09T00:08:27.837Z,17.85
2017-07-09T00:09:28.417Z,17.72
2017-07-09T00:10:28.996Z,17.48
2017-07-09T00:11:29.576Z,17.65
2017-07-09T00:12:30.154Z,18.10
2017-07-09T00:13:30.732Z,17.94
2017-07-09T00:14:31.311Z,17.85
2017-07-09T00:15:31.890Z,17.79
2017-07-09T00:16:32.479Z,17.80
2017-07-09T00:17:33.057Z,18.03
2017-07-09T00:18:33.633Z,17.82
2017-07-09T00:19:34.211Z,17.94
2017-07-09T00:20:34.789Z,18.04
2017-07-09T00:21:35.369Z,17.94
2017-07-09T00:22:35.948Z,18.38
2017-07-09T00:23:36.526Z,18.58
2017-07-09T00:24:37.104Z,18.44
2017-07-09T00:25:37.681Z,18.22
2017-07-09T00:26:38.257Z,17.90
2017-07-09T00:27:38.835Z,17.92
2017-07-09T00:28:39.412Z,17.57
2017-07-09T00:29:39.992Z,17.71
2017-07-09T00:30:40.567Z,18.13
2017-07-09T00:31:41.146Z,18.01
2017-07-09T00:32:41.725Z,18.00
2017-07-09T00:33:42.302Z,18.03
2017-07-09T00:34:42.882Z,17.86
2017-07-09T00:35:43.459Z,17.68
2017-07-09T00:36:44.037Z,17.86
2017-07-09T00:37:44.615Z,17.59
2017-07-09T00:38:45.193Z,17.70
2017-07-09T00:39:45.773Z,17.83
2017-07-09T00:40:46.352Z,17.95
2017-07-09T00:41:46.932Z,17.90
2017-07-09T00:42:47.510Z,18.13
2017-07-09T00:43:48.087Z,18.07
2017-07-09T00:44:48.665Z,17.78
2017-07-09T00:45:49.243Z,18.11
2017-07-09T00:46:49.822Z,18.03
2017-07-09T00:47:50.417Z,18.37
2017-07-09T00:48:50.981Z,18.49
2017-07-09T00:49:51.569Z,18.59
2017-07-09T00:50:52.146Z,18.05
2017-07-09T00:51:52.726Z,18.38
2017-07-09T00:52:53.304Z,18.15
2017-07-09T00:53:53.893Z,17.94
2017-07-09T00:54:54.473Z,18.20
2017-07-09T00:55:55.051Z,18.15
2017-07-09T00:56:55.641Z,18.31
2017-07-09T00:57:56.242Z,18.47
2017-07-09T00:58:56.800Z,18.34
2017-07-09T00:59:57.380Z,18.41
2017-07-09T01:00:57.955Z,18.20
2017-07-09T01:01:58.533Z,18.11
2017-07-09T01:02:59.111Z,18.13
2017-07-09T01:03:59.688Z,18.07
2017-07-09T01:05:00.269Z,18.11
2017-07-09T01:06:00.859Z,17.95
2017-07-09T01:07:01.437Z,18.03
2017-07-09T01:08:02.015Z,18.16
2017-07-09T01:09:02.592Z,17.68
2017-07-09T01:10:03.171Z,17.27
2017-07-09T01:11:03.747Z,17.39
2017-07-09T01:12:04.326Z,17.30
2017-07-09T01:13:04.904Z,17.71
2017-07-09T01:14:05.481Z,17.39
2017-07-09T01:15:06.058Z,17.57
2017-07-09T01:16:06.635Z,17.79
2017-07-09T01:17:07.212Z,17.49
2017-07-09T01:18:07.791Z,17.24
2017-07-09T01:19:08.372Z,17.20
2017-07-09T01:20:08.945Z,17.24
2017-07-09T01:21:09.524Z,17.20
2017-07-09T01:22:10.101Z,17.19
2017-07-09T01:23:10.681Z,17.11
2017-07-09T01:24:11.257Z,17.14
2017-07-09T01:25:11.846Z,17.19
2017-07-09T01:26:12.424Z,17.27
2017-07-09T01:27:13.002Z,17.30
2017-07-09T01:28:13.578Z,17.49
2017-07-09T01:29:14.155Z,17.70
2017-07-09T01:30:14.732Z,17.29
2017-07-09T01:31:15.310Z,17.15
2017-07-09T01:32:15.886Z,17.15
2017-07-09T01:33:16.465Z,17.04
2017-07-09T01:34:17.040Z,16.86
2017-07-09T01:35:17.619Z,16.89
2017-07-09T01:36:18.197Z,17.05
2017-07-09T01:37:18.775Z,17.26
2017-07-09T01:38:19.352Z,17.12
2017-07-09T01:39:19.930Z,17.20
2017-07-09T01:40:20.507Z,17.06
2017-07-09T01:41:21.083Z,17.15
2017-07-09T01:42:21.661Z,17.20
2017-07-09T01:43:22.236Z,17.12
2017-07-09T01:44:22.812Z,17.11
2017-07-09T01:45:23.392Z,16.91
2017-07-09T01:46:23.970Z,16.93
2017-07-09T01:47:24.547Z,17.19
2017-07-09T01:48:25.135Z,17.19
2017-07-09T01:49:25.713Z,17.27
2017-07-09T01:50:26.291Z,17.15
2017-07-09T01:51:26.871Z,17.06
2017-07-09T01:52:27.447Z,17.11
2017-07-09T01:53:28.025Z,17.26
2017-07-09T01:54:28.601Z,17.16
2017-07-09T01:55:29.179Z,17.26
2017-07-09T01:56:29.755Z,17.42
2017-07-09T01:57:30.333Z,17.42
2017-07-09T01:58:30.920Z,17.41
2017-07-09T01:59:31.498Z,17.48
2017-07-09T02:00:32.076Z,17.51
2017-07-09T02:01:32.653Z,17.27
2017-07-09T02:02:33.241Z,17.27
2017-07-09T02:03:33.821Z,17.05
2017-07-09T02:04:34.397Z,16.89
2017-07-09T02:05:34.974Z,16.86
2017-07-09T02:06:35.551Z,16.90
2017-07-09T02:07:36.128Z,16.94
2017-07-09T02:08:36.705Z,16.81
2017-07-09T02:09:37.283Z,16.75
2017-07-09T02:10:37.861Z,16.76
2017-07-09T02:11:38.438Z,16.87
2017-07-09T02:12:39.017Z,16.97
2017-07-09T02:13:39.593Z,17.04
2017-07-09T02:14:40.171Z,16.97
2017-07-09T02:15:40.748Z,16.93
2017-07-09T02:16:41.323Z,17.11
2017-07-09T02:17:41.911Z,17.15
2017-07-09T02:18:42.488Z,17.14
2017-07-09T02:19:43.067Z,17.09
2017-07-09T02:20:43.644Z,17.22
2017-07-09T02:21:44.221Z,17.08
2017-07-09T02:22:44.797Z,17.04
2017-07-09T02:23:45.374Z,17.06
2017-07-09T02:24:45.951Z,16.81
2017-07-09T02:25:46.529Z,16.72
2017-07-09T02:26:47.107Z,16.57
2017-07-09T02:27:47.686Z,16.42
2017-07-09T02:28:48.263Z,16.43
2017-07-09T02:29:48.839Z,16.60
2017-07-09T02:30:49.424Z,16.39
2017-07-09T02:31:49.994Z,16.46
2017-07-09T02:32:50.572Z,16.69
2017-07-09T02:33:51.148Z,16.66
2017-07-09T02:34:51.724Z,16.53
2017-07-09T02:35:52.302Z,16.60
2017-07-09T02:36:52.880Z,16.56
2017-07-09T02:37:53.466Z,16.43
2017-07-09T02:38:54.042Z,16.38
2017-07-09T02:39:54.619Z,16.33
2017-07-09T02:40:55.195Z,16.29
2017-07-09T02:41:55.773Z,16.29
2017-07-09T02:42:56.350Z,16.24
2017-07-09T02:43:56.928Z,16.42
2017-07-09T02:44:57.506Z,16.28
2017-07-09T02:45:58.083Z,16.24
2017-07-09T02:46:58.662Z,16.29
2017-07-09T02:47:59.248Z,16.32
2017-07-09T02:48:59.825Z,16.39
2017-07-09T02:50:00.403Z,16.20
2017-07-09T02:51:00.983Z,16.29
2017-07-09T02:52:01.557Z,16.42
2017-07-09T02:53:02.133Z,16.36
2017-07-09T02:54:02.715Z,16.33
2017-07-09T02:55:03.286Z,16.29
2017-07-09T02:56:03.863Z,16.31
2017-07-09T02:57:04.442Z,16.31
2017-07-09T02:58:05.019Z,16.31
2017-07-09T02:59:05.600Z,16.33
2017-07-09T03:00:06.175Z,16.60
2017-07-09T03:01:06.751Z,16.69
2017-07-09T03:02:07.328Z,16.64
2017-07-09T03:03:07.903Z,16.58
2017-07-09T03:04:08.481Z,16.39
2017-07-09T03:05:09.057Z,16.42
2017-07-09T03:06:09.634Z,16.42
2017-07-09T03:07:10.212Z,16.38
2017-07-09T03:08:10.791Z,16.43
2017-07-09T03:09:11.367Z,16.43
2017-07-09T03:10:11.946Z,16.38
2017-07-09T03:11:12.522Z,16.24
2017-07-09T03:12:13.100Z,16.10
2017-07-09T03:13:13.676Z,16.17
2017-07-09T03:14:14.252Z,16.12
2017-07-09T03:15:14.829Z,16.04
2017-07-09T03:16:15.406Z,16.08
2017-07-09T03:17:15.987Z,15.92
2017-07-09T03:18:16.561Z,16.15
2017-07-09T03:19:17.139Z,16.20
2017-07-09T03:20:17.715Z,16.35
2017-07-09T03:21:18.293Z,16.42
2017-07-09T03:22:18.870Z,16.43
2017-07-09T03:23:19.459Z,16.39
2017-07-09T03:24:20.039Z,16.28
2017-07-09T03:25:20.615Z,16.20
2017-07-09T03:26:21.191Z,15.97
2017-07-09T03:27:21.768Z,16.05
2017-07-09T03:28:22.346Z,15.83
2017-07-09T03:29:22.925Z,15.91
2017-07-09T03:30:23.502Z,15.90
2017-07-09T03:31:24.083Z,15.82
2017-07-09T03:32:24.661Z,15.65
2017-07-09T03:33:25.239Z,15.76
2017-07-09T03:34:25.818Z,15.86
2017-07-09T03:35:26.406Z,16.09
2017-07-09T03:36:26.984Z,16.10
2017-07-09T03:37:27.563Z,16.24
2017-07-09T03:38:28.141Z,16.16
2017-07-09T03:39:28.722Z,16.21
2017-07-09T03:40:29.299Z,16.01
2017-07-09T03:41:29.879Z,15.95
2017-07-09T03:42:30.463Z,15.80
2017-07-09T03:43:31.040Z,16.20
2017-07-09T03:44:31.617Z,16.04
2017-07-09T03:45:32.194Z,16.15
2017-07-09T03:46:32.773Z,16.29
2017-07-09T03:47:33.349Z,16.24
2017-07-09T03:48:33.927Z,16.20
2017-07-09T03:49:34.508Z,16.32
2017-07-09T03:50:35.083Z,16.12
2017-07-09T03:51:35.662Z,16.01
2017-07-09T03:52:36.240Z,16.15
2017-07-09T03:53:36.817Z,16.08
2017-07-09T03:54:37.395Z,15.92
2017-07-09T03:55:37.973Z,15.79
2017-07-09T03:56:38.553Z,15.86
2017-07-09T03:57:39.131Z,15.98
2017-07-09T03:58:39.709Z,16.21
2017-07-09T03:59:40.285Z,16.20
2017-07-09T04:00:40.864Z,16.29
2017-07-09T04:01:41.441Z,16.28
2017-07-09T04:02:42.019Z,16.36
2017-07-09T04:03:42.601Z,16.39
2017-07-09T04:04:43.187Z,16.49
2017-07-09T04:05:43.765Z,16.39
2017-07-09T04:06:44.355Z,16.38
2017-07-09T04:07:44.932Z,16.39
2017-07-09T04:08:45.517Z,16.20
2017-07-09T04:09:46.090Z,16.13
2017-07-09T04:10:46.666Z,15.97
2017-07-09T04:11:47.255Z,15.95
2017-07-09T04:12:47.836Z,15.82
2017-07-09T04:13:48.424Z,15.88
2017-07-09T04:14:49.001Z,15.97
2017-07-09T04:15:49.578Z,15.95
2017-07-09T04:16:50.154Z,16.21
2017-07-09T04:17:50.742Z,16.05
2017-07-09T04:18:51.322Z,15.91
2017-07-09T04:19:51.900Z,15.92
2017-07-09T04:20:52.478Z,15.88
2017-07-09T04:21:53.057Z,15.86
2017-07-09T04:22:53.635Z,15.82
2017-07-09T04:23:54.219Z,15.82
2017-07-09T04:24:54.795Z,15.83
2017-07-09T04:25:55.373Z,15.83
2017-07-09T04:26:55.951Z,15.91
2017-07-09T04:27:56.531Z,15.79
2017-07-09T04:28:57.111Z,15.79
2017-07-09T04:29:57.690Z,15.83
2017-07-09T04:30:58.268Z,15.91
2017-07-09T04:31:58.846Z,15.92
2017-07-09T04:32:59.430Z,16.08
2017-07-09T04:34:00.005Z,15.75
2017-07-09T04:35:00.582Z,15.84
2017-07-09T04:36:01.160Z,15.88
2017-07-09T04:37:01.738Z,15.95
2017-07-09T04:38:02.316Z,16.04
2017-07-09T04:39:02.905Z,15.97
2017-07-09T04:40:03.500Z,15.91
2017-07-09T04:41:04.073Z,15.82
2017-07-09T04:42:04.661Z,15.97
2017-07-09T04:43:05.240Z,15.90
2017-07-09T04:44:05.820Z,15.86
2017-07-09T04:45:06.398Z,16.12
2017-07-09T04:46:06.988Z,15.95
2017-07-09T04:47:07.565Z,16.09
2017-07-09T04:48:08.143Z,15.94
2017-07-09T04:49:08.723Z,16.13
2017-07-09T04:50:09.302Z,16.41
2017-07-09T04:51:09.880Z,16.43
2017-07-09T04:52:10.458Z,16.47
2017-07-09T04:53:11.035Z,16.38
2017-07-09T04:54:11.619Z,16.50
2017-07-09T04:55:12.205Z,16.35
2017-07-09T04:56:12.785Z,16.31
2017-07-09T04:57:13.364Z,16.28
2017-07-09T04:58:13.942Z,16.13
2017-07-09T04:59:14.521Z,16.16
2017-07-09T05:00:15.098Z,16.29
2017-07-09T05:01:15.678Z,16.26
2017-07-09T05:02:16.257Z,16.32
2017-07-09T05:03:16.835Z,16.39
2017-07-09T05:04:17.414Z,16.56
2017-07-09T05:05:17.992Z,16.42
2017-07-09T05:06:18.572Z,16.42
2017-07-09T05:07:19.152Z,16.35
2017-07-09T05:08:19.730Z,16.68
2017-07-09T05:09:20.308Z,16.76
2017-07-09T05:10:20.886Z,16.65
2017-07-09T05:11:21.465Z,16.61
2017-07-09T05:12:22.045Z,16.74
2017-07-09T05:13:22.623Z,16.64
2017-07-09T05:14:23.202Z,16.65
2017-07-09T05:15:23.780Z,16.72
2017-07-09T05:16:24.358Z,16.46
2017-07-09T05:17:24.937Z,16.36
2017-07-09T05:18:25.515Z,16.51
2017-07-09T05:19:26.095Z,16.66
2017-07-09T05:20:26.680Z,16.72
2017-07-09T05:21:27.256Z,16.86
2017-07-09T05:22:27.837Z,16.83
2017-07-09T05:23:28.415Z,16.79
2017-07-09T05:24:28.995Z,16.81
2017-07-09T05:25:29.574Z,16.69
2017-07-09T05:26:30.154Z,16.42
2017-07-09T05:27:30.735Z,16.47
2017-07-09T05:28:31.314Z,16.57
2017-07-09T05:29:31.894Z,16.69
2017-07-09T05:30:32.474Z,16.86
2017-07-09T05:31:33.055Z,17.05
2017-07-09T05:32:33.634Z,16.97
2017-07-09T05:33:34.214Z,17.09
2017-07-09T05:34:34.795Z,17.23
2017-07-09T05:35:35.375Z,17.26
2017-07-09T05:36:35.954Z,17.42
2017-07-09T05:37:36.533Z,17.39
2017-07-09T05:38:37.114Z,17.19
2017-07-09T05:39:37.706Z,17.15
2017-07-09T05:40:38.298Z,17.23
2017-07-09T05:41:38.877Z,17.27
2017-07-09T05:42:39.458Z,16.89
2017-07-09T05:43:40.038Z,16.96
2017-07-09T05:44:40.618Z,16.90
2017-07-09T05:45:41.198Z,16.83
2017-07-09T05:46:41.778Z,16.91
2017-07-09T05:47:42.360Z,16.75
2017-07-09T05:48:42.951Z,16.89
2017-07-09T05:49:43.530Z,16.91
2017-07-09T05:50:44.110Z,16.87
2017-07-09T05:51:44.690Z,16.91
2017-07-09T05:52:45.270Z,17.05
2017-07-09T05:53:45.852Z,17.22
2017-07-09T05:54:46.432Z,17.20
2017-07-09T05:55:47.069Z,17.16
2017-07-09T05:56:47.592Z,17.24
2017-07-09T05:57:48.171Z,17.26
2017-07-09T05:58:48.752Z,17.39
2017-07-09T05:59:49.332Z,17.44
2017-07-09T06:00:49.912Z,17.34
2017-07-09T06:01:50.494Z,17.49
2017-07-09T06:02:51.073Z,17.49
2017-07-09T06:03:51.653Z,17.45
2017-07-09T06:04:52.234Z,17.65
2017-07-09T06:05:52.814Z,17.90
2017-07-09T06:06:53.395Z,18.04
2017-07-09T06:07:53.974Z,18.04
2017-07-09T06:08:54.554Z,17.76
2017-07-09T06:09:55.137Z,17.78
2017-07-09T06:10:55.718Z,17.70
2017-07-09T06:11:56.297Z,17.94
2017-07-09T06:12:56.878Z,17.92
2017-07-09T06:13:57.458Z,18.04
2017-07-09T06:14:58.040Z,18.19
2017-07-09T06:15:58.632Z,18.29
2017-07-09T06:16:59.211Z,18.59
2017-07-09T06:17:59.792Z,18.44
2017-07-09T06:19:00.377Z,18.35
2017-07-09T06:20:00.953Z,18.35
2017-07-09T06:21:01.533Z,18.38
2017-07-09T06:22:02.113Z,18.26
2017-07-09T06:23:02.695Z,18.40
2017-07-09T06:24:03.278Z,18.29
2017-07-09T06:25:03.857Z,18.37
2017-07-09T06:26:04.449Z,18.70
2017-07-09T06:27:05.030Z,18.89
2017-07-09T06:28:05.611Z,18.89
2017-07-09T06:29:06.192Z,18.86
2017-07-09T06:30:06.774Z,18.66
2017-07-09T06:31:07.374Z,18.78
2017-07-09T06:32:07.959Z,18.88
2017-07-09T06:33:08.541Z,19.02
2017-07-09T06:34:09.123Z,19.16
2017-07-09T06:35:09.704Z,19.24
2017-07-09T06:36:10.285Z,19.39
2017-07-09T06:37:10.867Z,19.02
2017-07-09T06:38:11.447Z,18.68
2017-07-09T06:39:12.039Z,18.60
2017-07-09T06:40:12.622Z,18.77
2017-07-09T06:41:13.202Z,18.65
2017-07-09T06:42:13.783Z,18.75
2017-07-09T06:43:14.365Z,18.62
2017-07-09T06:44:14.946Z,18.70
2017-07-09T06:45:15.529Z,18.88
2017-07-09T06:46:16.110Z,18.77
2017-07-09T06:47:16.690Z,18.68
2017-07-09T06:48:17.273Z,18.59
2017-07-09T06:49:17.853Z,18.68
2017-07-09T06:50:18.434Z,18.73
2017-07-09T06:51:19.025Z,18.98
2017-07-09T06:52:19.608Z,19.00
2017-07-09T06:53:20.189Z,18.92
2017-07-09T06:54:20.770Z,19.14
2017-07-09T06:55:21.362Z,18.80
2017-07-09T06:56:21.942Z,18.45
2017-07-09T06:57:22.523Z,18.66
2017-07-09T06:58:23.107Z,18.66
2017-07-09T06:59:23.692Z,18.80
2017-07-09T07:00:24.269Z,18.74
2017-07-09T07:01:24.850Z,19.24
2017-07-09T07:02:25.431Z,19.12
2017-07-09T07:03:26.014Z,18.99
2017-07-09T07:04:26.606Z,18.99
2017-07-09T07:05:27.188Z,18.99
2017-07-09T07:06:27.789Z,18.84
2017-07-09T07:07:28.349Z,18.63
2017-07-09T07:08:28.930Z,18.60
2017-07-09T07:09:29.511Z,18.59
2017-07-09T07:10:30.092Z,18.66
2017-07-09T07:11:30.674Z,18.60
2017-07-09T07:12:31.258Z,18.83
2017-07-09T07:13:31.839Z,18.75
2017-07-09T07:14:32.419Z,18.96
2017-07-09T07:15:33.000Z,18.88
2017-07-09T07:16:33.581Z,18.93
2017-07-09T07:17:34.165Z,18.95
2017-07-09T07:18:34.745Z,19.18
2017-07-09T07:19:35.327Z,19.18
2017-07-09T07:20:35.929Z,19.34
2017-07-09T07:21:36.489Z,19.40
2017-07-09T07:22:37.069Z,19.47
2017-07-09T07:23:37.650Z,19.62
2017-07-09T07:24:38.232Z,19.81
2017-07-09T07:25:38.814Z,19.66
2017-07-09T07:26:39.394Z,19.56
2017-07-09T07:27:39.976Z,19.71
2017-07-09T07:28:40.558Z,19.89
2017-07-09T07:29:41.138Z,19.99
2017-07-09T07:30:41.720Z,19.74
2017-07-09T07:31:42.302Z,19.67
2017-07-09T07:32:42.884Z,19.56
2017-07-09T07:33:43.467Z,19.63
2017-07-09T07:34:44.048Z,19.77
2017-07-09T07:35:44.628Z,19.91
2017-07-09T07:36:45.212Z,19.89
2017-07-09T07:37:45.792Z,19.82
2017-07-09T07:38:46.375Z,19.58
2017-07-09T07:39:46.955Z,19.82
2017-07-09T07:40:47.535Z,20.00
2017-07-09T07:41:48.120Z,20.19
2017-07-09T07:42:48.700Z,20.06
2017-07-09T07:43:49.281Z,20.34
2017-07-09T07:44:49.862Z,20.37
2017-07-09T07:45:50.444Z,20.41
2017-07-09T07:46:51.027Z,20.56
2017-07-09T07:47:51.607Z,20.77
2017-07-09T07:48:52.189Z,20.84
2017-07-09T07:49:52.773Z,20.78
2017-07-09T07:50:53.355Z,20.37
2017-07-09T07:51:53.936Z,20.50
2017-07-09T07:52:54.528Z,20.60
2017-07-09T07:53:55.110Z,20.55
2017-07-09T07:54:55.692Z,20.36
2017-07-09T07:55:56.275Z,20.58
2017-07-09T07:56:56.854Z,20.24
2017-07-09T07:57:57.436Z,20.29
2017-07-09T07:58:58.021Z,19.94
2017-07-09T07:59:58.611Z,20.07
2017-07-09T08:00:59.204Z,20.06
2017-07-09T08:01:59.785Z,20.22
2017-07-09T08:03:00.365Z,20.32
2017-07-09T08:04:00.948Z,20.48
2017-07-09T08:05:01.533Z,20.56
2017-07-09T08:06:02.126Z,20.58
2017-07-09T08:07:02.717Z,20.78
2017-07-09T08:08:03.299Z,20.63
2017-07-09T08:09:03.883Z,20.77
2017-07-09T08:10:04.466Z,21.18
2017-07-09T08:11:05.049Z,21.51
2017-07-09T08:12:05.631Z,21.60
2017-07-09T08:13:06.212Z,21.58
2017-07-09T08:14:06.794Z,21.60
2017-07-09T08:15:07.375Z,20.95
2017-07-09T08:16:07.957Z,21.30
2017-07-09T08:17:08.542Z,21.46
2017-07-09T08:18:09.124Z,21.42
2017-07-09T08:19:09.706Z,21.18
2017-07-09T08:20:10.290Z,21.40
2017-07-09T08:21:10.871Z,21.92
2017-07-09T08:22:11.452Z,21.75
2017-07-09T08:23:12.046Z,22.29
2017-07-09T08:24:12.628Z,21.77
2017-07-09T08:25:13.209Z,21.48
2017-07-09T08:26:13.792Z,21.83
2017-07-09T08:27:14.374Z,22.08
2017-07-09T08:28:14.956Z,22.17
2017-07-09T08:29:15.538Z,22.17
2017-07-09T08:30:16.120Z,22.18
2017-07-09T08:31:16.704Z,22.48
2017-07-09T08:32:17.285Z,22.73
2017-07-09T08:33:17.868Z,22.15
2017-07-09T08:34:18.461Z,21.83
2017-07-09T08:35:19.044Z,21.96
2017-07-09T08:36:19.627Z,21.66
2017-07-09T08:37:20.211Z,21.77
2017-07-09T08:38:20.792Z,21.62
2017-07-09T08:39:21.375Z,21.32
2017-07-09T08:40:21.956Z,21.64
2017-07-09T08:41:22.539Z,22.17
2017-07-09T08:42:23.123Z,22.11
2017-07-09T08:43:23.705Z,22.28
2017-07-09T08:44:24.288Z,22.38
2017-07-09T08:45:24.872Z,22.69
2017-07-09T08:46:25.454Z,22.93
2017-07-09T08:47:26.047Z,22.48
2017-07-09T08:48:26.631Z,22.78
2017-07-09T08:49:27.213Z,22.90
2017-07-09T08:50:27.795Z,23.00
2017-07-09T08:51:28.378Z,22.81
2017-07-09T08:52:28.961Z,22.94
2017-07-09T08:53:29.545Z,22.99
2017-07-09T08:54:30.128Z,23.06
2017-07-09T08:55:30.713Z,23.39
2017-07-09T08:56:31.297Z,23.46
2017-07-09T08:57:31.880Z,23.41
2017-07-09T08:58:32.467Z,23.43
2017-07-09T08:59:33.059Z,23.51
2017-07-09T09:00:33.644Z,22.98
2017-07-09T09:01:34.227Z,22.98
2017-07-09T09:02:34.811Z,23.24
2017-07-09T09:03:35.397Z,23.37
2017-07-09T09:04:35.979Z,23.17
2017-07-09T09:05:36.564Z,23.06
2017-07-09T09:06:37.146Z,23.06
2017-07-09T09:07:37.731Z,22.72
2017-07-09T09:08:38.315Z,22.90
2017-07-09T09:09:38.897Z,23.08
2017-07-09T09:10:39.480Z,23.44
2017-07-09T09:11:40.065Z,22.93
2017-07-09T09:12:40.647Z,23.03
2017-07-09T09:13:41.230Z,23.56
2017-07-09T09:14:41.812Z,22.83
2017-07-09T09:15:42.408Z,22.66
2017-07-09T09:16:42.992Z,22.63
2017-07-09T09:17:43.587Z,22.94
2017-07-09T09:18:44.170Z,22.84
2017-07-09T09:19:44.754Z,22.83
2017-07-09T09:20:45.340Z,22.73
2017-07-09T09:21:45.924Z,22.75
2017-07-09T09:22:46.509Z,22.87
2017-07-09T09:23:47.094Z,23.34
2017-07-09T09:24:47.678Z,23.65
2017-07-09T09:25:48.265Z,23.28
2017-07-09T09:26:48.847Z,23.31
2017-07-09T09:27:49.431Z,23.47
2017-07-09T09:28:50.016Z,23.73
2017-07-09T09:29:50.601Z,22.99
2017-07-09T09:30:51.185Z,23.40
2017-07-09T09:31:51.767Z,23.62
2017-07-09T09:32:52.361Z,23.73
2017-07-09T09:33:52.944Z,23.91
2017-07-09T09:34:53.528Z,23.98
2017-07-09T09:35:54.113Z,23.63
2017-07-09T09:36:54.695Z,23.56
2017-07-09T09:37:55.279Z,22.70
2017-07-09T09:38:55.862Z,22.83
2017-07-09T09:39:56.445Z,22.62
2017-07-09T09:40:57.030Z,22.93
2017-07-09T09:41:57.612Z,22.91
2017-07-09T09:42:58.197Z,22.75
2017-07-09T09:43:58.790Z,23.09
2017-07-09T09:44:59.372Z,23.12
2017-07-09T09:45:59.958Z,23.05
2017-07-09T09:47:00.543Z,23.34
2017-07-09T09:48:01.127Z,23.24
2017-07-09T09:49:01.711Z,23.13
2017-07-09T09:50:02.295Z,23.25
2017-07-09T09:51:02.878Z,23.34
2017-07-09T09:52:03.461Z,23.84
2017-07-09T09:53:04.063Z,23.84
2017-07-09T09:54:04.639Z,23.84
2017-07-09T09:55:05.221Z,23.87
2017-07-09T09:56:05.809Z,23.66
2017-07-09T09:57:06.389Z,23.69
2017-07-09T09:58:06.971Z,23.62
2017-07-09T09:59:07.555Z,23.91
2017-07-09T10:00:08.147Z,23.48
2017-07-09T10:01:08.730Z,23.32
2017-07-09T10:02:09.316Z,23.41
2017-07-09T10:03:09.909Z,23.80
2017-07-09T10:04:10.495Z,23.32
2017-07-09T10:05:11.081Z,23.73
2017-07-09T10:06:11.666Z,23.86
2017-07-09T10:07:12.250Z,24.55
2017-07-09T10:08:12.837Z,24.81
2017-07-09T10:09:13.433Z,24.81
2017-07-09T10:10:14.017Z,24.28
2017-07-09T10:11:14.601Z,24.58
2017-07-09T10:12:15.185Z,24.53
2017-07-09T10:13:15.770Z,24.06
2017-07-09T10:14:16.356Z,24.23
2017-07-09T10:15:16.939Z,24.88
2017-07-09T10:16:17.523Z,24.86
2017-07-09T10:17:18.108Z,24.36
2017-07-09T10:18:18.691Z,24.28
2017-07-09T10:19:19.274Z,24.57
2017-07-09T10:20:19.859Z,24.78
2017-07-09T10:21:20.447Z,24.26
2017-07-09T10:22:21.029Z,24.32
2017-07-09T10:23:21.625Z,24.40
2017-07-09T10:24:22.209Z,24.76
2017-07-09T10:25:22.793Z,24.86
2017-07-09T10:26:23.378Z,24.96
2017-07-09T10:27:23.961Z,25.04
2017-07-09T10:28:24.546Z,25.22
2017-07-09T10:29:25.130Z,25.06
2017-07-09T10:30:25.716Z,24.68
2017-07-09T10:31:26.301Z,24.80
2017-07-09T10:32:26.885Z,25.41
2017-07-09T10:33:27.470Z,25.75
2017-07-09T10:34:28.057Z,25.36
2017-07-09T10:35:28.640Z,25.51
2017-07-09T10:36:29.226Z,25.75
2017-07-09T10:37:29.813Z,25.38
2017-07-09T10:38:30.399Z,25.43
2017-07-09T10:39:30.982Z,25.10
2017-07-09T10:40:31.569Z,25.63
2017-07-09T10:41:32.154Z,25.84
2017-07-09T10:42:32.738Z,25.59
2017-07-09T10:43:33.325Z,24.95
2017-07-09T10:44:33.910Z,25.18
2017-07-09T10:45:34.496Z,25.68
2017-07-09T10:46:35.082Z,24.84
2017-07-09T10:47:35.668Z,25.10
2017-07-09T10:48:36.253Z,25.28
2017-07-09T10:49:36.842Z,25.29
2017-07-09T10:50:37.423Z,25.35
2017-07-09T10:51:38.011Z,25.31
2017-07-09T10:52:38.595Z,25.48
2017-07-09T10:53:39.181Z,25.78
2017-07-09T10:54:39.767Z,25.83
2017-07-09T10:55:40.352Z,26.26
2017-07-09T10:56:40.937Z,27.03
2017-07-09T10:57:41.523Z,26.92
2017-07-09T10:58:42.108Z,26.75
2017-07-09T10:59:42.694Z,26.75
2017-07-09T11:00:43.281Z,26.45
2017-07-09T11:01:43.866Z,26.65
2017-07-09T11:02:44.452Z,27.07
2017-07-09T11:03:45.037Z,26.41
2017-07-09T11:04:45.623Z,26.10
2017-07-09T11:05:46.207Z,26.23
2017-07-09T11:06:46.791Z,26.10
2017-07-09T11:07:47.386Z,25.95
2017-07-09T11:08:47.970Z,25.91
2017-07-09T11:09:48.556Z,25.70
2017-07-09T11:10:49.140Z,25.84
2017-07-09T11:11:49.726Z,26.02
2017-07-09T11:12:50.312Z,26.03
2017-07-09T11:13:50.911Z,25.80
2017-07-09T11:14:51.493Z,25.98
2017-07-09T11:15:52.081Z,26.05
2017-07-09T11:16:52.668Z,26.21
2017-07-09T11:17:53.264Z,25.59
2017-07-09T11:18:53.861Z,25.50
2017-07-09T11:19:54.448Z,25.48
2017-07-09T11:20:55.034Z,25.21
2017-07-09T11:21:55.620Z,25.53
2017-07-09T11:22:56.206Z,25.59
2017-07-09T11:23:56.791Z,25.90
2017-07-09T11:24:57.388Z,25.46
2017-07-09T11:25:57.974Z,26.03
2017-07-09T11:26:58.559Z,26.51
2017-07-09T11:27:59.145Z,27.10
2017-07-09T11:28:59.732Z,27.05
2017-07-09T11:30:00.318Z,27.11
2017-07-09T11:31:00.906Z,27.54
2017-07-09T11:32:01.503Z,27.68
2017-07-09T11:33:02.118Z,27.74
2017-07-09T11:34:02.704Z,27.40
2017-07-09T11:35:03.302Z,27.71
2017-07-09T11:36:03.887Z,27.98
2017-07-09T11:37:04.474Z,27.96
2017-07-09T11:38:05.059Z,28.02
2017-07-09T11:39:05.647Z,27.29
2017-07-09T11:40:06.233Z,27.33
2017-07-09T11:41:06.820Z,27.89
2017-07-09T11:42:07.405Z,27.33
2017-07-09T11:43:07.993Z,27.11
2017-07-09T11:44:08.582Z,27.48
2017-07-09T11:45:09.167Z,27.71
2017-07-09T11:46:09.752Z,27.87
2017-07-09T11:47:10.350Z,27.68
2017-07-09T11:48:10.936Z,27.25
2017-07-09T11:49:11.523Z,27.08
2017-07-09T11:50:12.115Z,27.05
2017-07-09T11:51:12.696Z,27.05
2017-07-09T11:52:13.284Z,27.64
2017-07-09T11:53:13.869Z,27.33
2017-07-09T11:54:14.456Z,26.68
2017-07-09T11:55:15.041Z,26.13
2017-07-09T11:56:15.635Z,26.26
2017-07-09T11:57:16.220Z,25.98
2017-07-09T11:58:16.817Z,26.23
2017-07-09T11:59:17.402Z,26.40
2017-07-09T12:00:17.991Z,26.25
2017-07-09T12:01:18.576Z,25.41
2017-07-09T12:02:19.163Z,25.10
2017-07-09T12:03:19.760Z,24.80
2017-07-09T12:04:20.344Z,24.95
2017-07-09T12:05:20.931Z,25.08
2017-07-09T12:06:21.519Z,25.73
2017-07-09T12:07:22.105Z,25.87
2017-07-09T12:08:22.694Z,26.36
2017-07-09T12:09:23.279Z,25.87
2017-07-09T12:10:23.866Z,25.29
2017-07-09T12:11:24.452Z,25.54
2017-07-09T12:12:25.039Z,25.58
2017-07-09T12:13:25.636Z,25.40
2017-07-09T12:14:26.221Z,25.60
2017-07-09T12:15:26.807Z,25.13
2017-07-09T12:16:27.392Z,25.32
2017-07-09T12:17:27.978Z,25.81
2017-07-09T12:18:28.564Z,26.13
2017-07-09T12:19:29.159Z,25.63
2017-07-09T12:20:29.743Z,25.59
2017-07-09T12:21:30.329Z,25.35
2017-07-09T12:22:30.912Z,25.21
2017-07-09T12:23:31.497Z,24.92
2017-07-09T12:24:32.085Z,25.65
2017-07-09T12:25:32.671Z,25.81
2017-07-09T12:26:33.257Z,25.58
2017-07-09T12:27:33.844Z,25.40
2017-07-09T12:28:34.428Z,25.77
2017-07-09T12:29:35.015Z,26.25
2017-07-09T12:30:35.601Z,26.34
2017-07-09T12:31:36.186Z,26.92
2017-07-09T12:32:36.772Z,27.44
2017-07-09T12:33:37.368Z,27.21
2017-07-09T12:34:37.953Z,26.93
2017-07-09T12:35:38.539Z,26.26
2017-07-09T12:36:39.127Z,26.36
2017-07-09T12:37:39.711Z,26.97
2017-07-09T12:38:40.297Z,26.36
2017-07-09T12:39:40.886Z,25.99
2017-07-09T12:40:41.472Z,26.23
2017-07-09T12:41:42.059Z,25.78
2017-07-09T12:42:42.646Z,25.68
2017-07-09T12:43:43.230Z,25.60
2017-07-09T12:44:43.816Z,25.25
2017-07-09T12:45:44.403Z,25.48
2017-07-09T12:46:44.989Z,25.70
2017-07-09T12:47:45.573Z,26.23
2017-07-09T12:48:46.161Z,26.62
2017-07-09T12:49:46.746Z,26.58
2017-07-09T12:50:47.331Z,26.83
2017-07-09T12:51:47.916Z,27.40
2017-07-09T12:52:48.512Z,27.42
2017-07-09T12:53:49.098Z,26.84
2017-07-09T12:54:49.686Z,26.62
2017-07-09T12:55:50.270Z,26.66
2017-07-09T12:56:50.857Z,26.93
2017-07-09T12:57:51.446Z,27.35
2017-07-09T12:58:52.032Z,26.85
2017-07-09T12:59:52.617Z,26.97